Norsjoe, Sweden

7:51 AM CEST on October 02, 2014 (GMT +0200)
Lycksele | Change Station
CLOSE
Current Station
Airport
Location: LYCKSELE,
Elevation: 702 ft
Nearby Weather Stations

Elev 702 ft 64.55 °N, 18.72 °E | Updated 31 minutes ago

Light Rain
Light Rain
45 °F
Feels Like 45 °F
N
2
Wind Variable Wind from WSW

Today
High -- | Low -- °F
--% Chance of Precip.
Yesterday
High -- | Low -- °F
Precip. -- in
6:54 AM 6:07 PM
First Quarter, 55% visible
Pressure 30.12 in
Visibility 6.2 miles
Clouds Few 5500 ft
Dew Point 39 °F
Humidity 81%
Rainfall 0.00 in
Snow Depth Not available.
UV 0 out of 12
Pollen Not available.
Air Quality Not available.
Flu Activity Not available.
METAR ESNL 020520Z 25002KT 9999 -RA FEW055 07/04 Q1020

More Conditions Fewer Conditions

Pressure 30.12 in
Visibility 6.2 miles
Clouds Few 5500 ft
Dew Point 39 °F
Humidity 81%
Rainfall 0.00 in
Snow Depth Not available.
UV 0 out of 12
Pollen Not available.
Air Quality Not available.
Flu Activity Not available.
METAR ESNL 020520Z 25002KT 9999 -RA FEW055 07/04 Q1020

More Conditions Fewer Conditions

10-Day Weather Forecast

Almanac

Astronomy

Oct. 02, 2014 Rise Set
Actual Time 6:54 AM CEST 6:07 PM CEST
Civil Twilight 6:05 AM CEST 6:56 PM CEST
Nautical Twilight 5:07 AM CEST 7:54 PM CEST
Astronomical Twilight 4:04 AM CEST 8:56 PM CEST
Moon 4:01 PM CEST 10:58 PM CEST
Length of Visible Light 12h 51m
Length of Day
11h 13m
Tomorrow will be 6m 40s shorter.
First Quarter, 55% of the Moon is Illuminated
Today
First Quarter
Oct 8
Full
Oct 15
Last Quarter
Oct 23
New
Oct 30
First Quarter

Yesterday's Extremes

Country Highs Country Lows

Community

WunderPhotos

Upload Photos

1,758,197 photos uploaded!

Nearby

Snow Depth

Not available.

Earthquake Activity

City Distance Mag. Time & Date
No recent earthquake activity has been reported nearby.
Minimum magnitude displayed is 2.5.

Coastal Water Temperatures

Place Temperature
No Stations Reporting

Nearby Weather Stations